Google Maps JavaScript API Example
Pilot Flight Report # 93462 Submitted by : AST775 on 2019-12-01
Date: 2019-12-01Aircraft: Boeing 737 MAX7
Flight No.: Not AvailableDistance (Nm): 761.70
Departure: DIAP - Felix Houphouet-BoignyDestination: FGSL - Malabo
 TimeFuelWeightSpeeds  
Out (Taxi)0837Z29115 lbs142004 lbs Flight RulesVFR
Off (Takeoff)0838Z 141877 lbs163 ktsFlight Level32000
On (Landing)1035Z 107705 lbs135 ktsVSTD-51 ft/min
In (Ramp)1035Z18590 lbs107693 lbs ZFW112890 lbs
Flight2.00  -  1:5710377 lbs  Pax0
Block1.97  -  1:5810525 lbs  Cargo0
Departure Weather270839Z 21605KT 56SM FEW012 28/25 A2982
Destination WeatherFGSL 271035Z 25304KT 56SM +RA SKC 25/23 A2982
Flight CommentsLeg 3 - DIAP - FGSL